createdAt,value
2018-01-13T00:00:36.266Z,91.80
2018-01-13T00:03:04.588Z,91.80
2018-01-13T00:05:33.647Z,91.80
2018-01-13T00:08:01.962Z,91.80
2018-01-13T00:10:31.054Z,91.70
2018-01-13T00:13:00.134Z,91.70
2018-01-13T00:15:28.440Z,91.70
2018-01-13T00:17:57.520Z,91.70
2018-01-13T00:20:25.843Z,91.70
2018-01-13T00:22:54.150Z,91.60
2018-01-13T00:25:22.461Z,91.60
2018-01-13T00:27:51.019Z,91.50
2018-01-13T00:30:19.336Z,91.50
2018-01-13T00:32:48.421Z,91.50
2018-01-13T00:35:16.705Z,91.50
2018-01-13T00:37:45.008Z,91.50
2018-01-13T00:40:14.072Z,91.40
2018-01-13T00:42:42.398Z,91.40
2018-01-13T00:45:11.489Z,91.60
2018-01-13T00:47:40.562Z,91.70
2018-01-13T00:50:08.876Z,91.70
2018-01-13T00:52:37.211Z,91.60
2018-01-13T00:55:05.530Z,91.50
2018-01-13T00:57:33.825Z,91.50
2018-01-13T01:00:02.918Z,91.50
2018-01-13T01:02:32.039Z,91.60
2018-01-13T01:05:00.361Z,91.60
2018-01-13T01:07:28.709Z,91.50
2018-01-13T01:09:57.015Z,91.60
2018-01-13T01:12:25.341Z,91.60
2018-01-13T01:14:54.401Z,91.70
2018-01-13T01:17:23.492Z,91.70
2018-01-13T01:19:51.787Z,91.70
2018-01-13T01:22:20.225Z,91.80
2018-01-13T01:24:48.623Z,91.80
2018-01-13T01:27:16.927Z,91.90
2018-01-13T01:29:45.241Z,91.90
2018-01-13T01:32:13.569Z,91.90
2018-01-13T01:34:41.887Z,91.90
2018-01-13T01:37:10.239Z,91.90
2018-01-13T01:39:38.569Z,91.80
2018-01-13T01:42:06.921Z,91.80
2018-01-13T01:44:35.219Z,91.70
2018-01-13T01:47:03.525Z,91.80
2018-01-13T01:49:32.657Z,92.10
2018-01-13T01:52:00.972Z,91.70
2018-01-13T01:54:29.287Z,91.60
2018-01-13T01:56:57.647Z,91.60
2018-01-13T01:59:25.963Z,91.60
2018-01-13T02:01:55.053Z,91.60
2018-01-13T02:04:24.121Z,91.70
2018-01-13T02:06:52.419Z,91.60
2018-01-13T02:09:20.727Z,91.60
2018-01-13T02:11:50.117Z,91.50
2018-01-13T02:14:18.482Z,91.50
2018-01-13T02:16:46.791Z,91.60
2018-01-13T02:19:15.917Z,91.60
2018-01-13T02:21:44.227Z,91.60
2018-01-13T02:24:12.547Z,91.60
2018-01-13T02:26:41.673Z,91.60
2018-01-13T02:29:09.999Z,91.50
2018-01-13T02:31:38.309Z,91.50
2018-01-13T02:34:07.417Z,92.00
2018-01-13T02:36:36.518Z,91.70
2018-01-13T02:39:05.595Z,92.00
2018-01-13T02:41:33.912Z,91.80
2018-01-13T02:44:02.229Z,91.70
2018-01-13T02:46:30.567Z,91.80
2018-01-13T02:48:58.933Z,91.80
2018-01-13T02:51:27.311Z,91.90
2018-01-13T02:53:55.642Z,92.20
2018-01-13T02:56:23.981Z,91.90
2018-01-13T02:58:52.316Z,91.90
2018-01-13T03:01:20.651Z,91.90
2018-01-13T03:03:49.779Z,91.90
2018-01-13T03:06:18.097Z,91.90
2018-01-13T03:08:46.389Z,91.80
2018-01-13T03:11:14.695Z,91.80
2018-01-13T03:13:43.771Z,91.90
2018-01-13T03:16:12.079Z,91.90
2018-01-13T03:18:41.154Z,92.10
2018-01-13T03:21:09.459Z,92.10
2018-01-13T03:23:38.581Z,92.00
2018-01-13T03:26:06.890Z,92.00
2018-01-13T03:28:35.190Z,91.90
2018-01-13T03:31:04.893Z,91.90
2018-01-13T03:33:34.211Z,91.90
2018-01-13T03:36:04.874Z,91.90
2018-01-13T03:38:34.001Z,91.90
2018-01-13T03:41:02.321Z,91.90
2018-01-13T03:43:30.733Z,91.90
2018-01-13T03:45:59.062Z,91.90
2018-01-13T03:48:27.462Z,92.10
2018-01-13T03:50:55.769Z,91.90
2018-01-13T03:53:24.301Z,91.90
2018-01-13T03:55:52.720Z,91.80
2018-01-13T03:58:21.143Z,91.80
2018-01-13T04:00:57.099Z,91.80
2018-01-13T04:03:26.079Z,91.80
2018-01-13T04:05:54.416Z,91.80
2018-01-13T04:08:22.711Z,91.70
2018-01-13T04:10:51.061Z,91.70
2018-01-13T04:13:19.425Z,91.70
2018-01-13T04:15:48.523Z,91.80
2018-01-13T04:18:17.629Z,91.80
2018-01-13T04:20:47.849Z,91.80
2018-01-13T04:23:17.441Z,91.80
2018-01-13T04:25:50.297Z,91.70
2018-01-13T04:28:18.931Z,91.70
2018-01-13T04:30:47.412Z,91.80
2018-01-13T04:33:17.075Z,91.80
2018-01-13T04:35:47.220Z,91.90
2018-01-13T04:38:16.341Z,91.90
2018-01-13T04:40:45.371Z,91.90
2018-01-13T04:43:17.220Z,91.90
2018-01-13T04:45:45.568Z,91.80
2018-01-13T04:48:16.858Z,91.90
2018-01-13T04:50:50.474Z,92.10
2018-01-13T04:53:18.832Z,92.10
2018-01-13T04:55:47.902Z,92.10
2018-01-13T04:58:16.214Z,92.10
2018-01-13T05:00:45.322Z,92.10
2018-01-13T05:03:14.412Z,92.10
2018-01-13T05:05:43.488Z,92.40
2018-01-13T05:08:11.793Z,92.10
2018-01-13T05:10:41.021Z,92.10
2018-01-13T05:13:09.426Z,92.10
2018-01-13T05:15:37.718Z,92.10
2018-01-13T05:18:06.025Z,92.20
2018-01-13T05:20:35.230Z,92.10
2018-01-13T05:23:03.552Z,92.10
2018-01-13T05:25:31.868Z,92.20
2018-01-13T05:28:00.171Z,92.20
2018-01-13T05:30:29.266Z,92.10
2018-01-13T05:32:58.715Z,91.90
2018-01-13T05:35:27.028Z,92.10
2018-01-13T05:37:55.359Z,92.10
2018-01-13T05:40:24.432Z,92.20
2018-01-13T05:42:52.750Z,92.20
2018-01-13T05:45:21.821Z,92.20
2018-01-13T05:47:50.118Z,92.20
2018-01-13T05:50:19.245Z,92.30
2018-01-13T05:52:47.554Z,92.20
2018-01-13T05:55:15.884Z,92.20
2018-01-13T05:57:45.726Z,92.30
2018-01-13T06:00:14.116Z,92.30
2018-01-13T06:02:42.412Z,92.40
2018-01-13T06:05:10.720Z,92.40
2018-01-13T06:07:39.040Z,92.40
2018-01-13T06:10:07.363Z,92.30
2018-01-13T06:12:35.685Z,92.50
2018-01-13T06:15:03.973Z,92.70
2018-01-13T06:17:33.743Z,92.70
2018-01-13T06:20:02.063Z,92.70
2018-01-13T06:22:31.170Z,92.90
2018-01-13T06:25:00.266Z,93.00
2018-01-13T06:27:29.349Z,93.00
2018-01-13T06:29:57.644Z,93.00
2018-01-13T06:32:26.762Z,93.10
2018-01-13T06:34:55.066Z,93.00
2018-01-13T06:37:23.358Z,93.10
2018-01-13T06:39:51.730Z,93.10
2018-01-13T06:42:20.248Z,93.10
2018-01-13T06:44:48.574Z,93.10
2018-01-13T06:47:16.894Z,93.20
2018-01-13T06:49:45.218Z,93.20
2018-01-13T06:52:13.522Z,93.20
2018-01-13T06:54:41.850Z,93.60
2018-01-13T06:57:10.184Z,93.30
2018-01-13T06:59:39.262Z,93.40
2018-01-13T07:02:08.412Z,93.40
2018-01-13T07:04:36.696Z,93.30
2018-01-13T07:07:05.000Z,93.40
2018-01-13T07:09:33.344Z,93.90
2018-01-13T07:12:01.946Z,93.60
2018-01-13T07:14:30.288Z,93.60
2018-01-13T07:16:58.765Z,93.50
2018-01-13T07:19:27.089Z,93.50
2018-01-13T07:21:55.462Z,93.60
2018-01-13T07:24:23.770Z,93.60
2018-01-13T07:26:53.352Z,93.60
2018-01-13T07:29:21.748Z,93.70
2018-01-13T07:31:50.086Z,93.70
2018-01-13T07:34:19.155Z,93.70
2018-01-13T07:36:47.490Z,93.70
2018-01-13T07:39:17.068Z,93.70
2018-01-13T07:41:45.656Z,93.70
2018-01-13T07:44:13.962Z,93.70
2018-01-13T07:46:43.175Z,93.70
2018-01-13T07:49:11.504Z,93.70
2018-01-13T07:51:40.620Z,93.70
2018-01-13T07:54:12.560Z,93.90
2018-01-13T07:56:41.189Z,93.70
2018-01-13T07:59:10.532Z,93.70
2018-01-13T08:01:38.932Z,93.70
2018-01-13T08:04:07.504Z,93.70
2018-01-13T08:06:35.810Z,93.80
2018-01-13T08:09:04.160Z,93.80
2018-01-13T08:11:34.144Z,93.80
2018-01-13T08:14:02.564Z,93.70
2018-01-13T08:16:31.117Z,93.70
2018-01-13T08:19:00.196Z,93.80
2018-01-13T08:21:28.516Z,93.70
2018-01-13T08:23:57.572Z,93.80
2018-01-13T08:26:25.924Z,93.80
2018-01-13T08:28:54.244Z,93.80
2018-01-13T08:31:22.548Z,93.80
2018-01-13T08:33:51.626Z,93.80
2018-01-13T08:36:19.931Z,93.80
2018-01-13T08:38:49.014Z,93.90
2018-01-13T08:41:17.334Z,93.80
2018-01-13T08:43:45.640Z,93.80
2018-01-13T08:46:13.973Z,93.90
2018-01-13T08:48:43.054Z,93.90
2018-01-13T08:51:11.355Z,93.90
2018-01-13T08:53:40.424Z,93.80
2018-01-13T08:56:08.765Z,93.80
2018-01-13T08:58:37.068Z,93.80
2018-01-13T09:01:05.388Z,93.70
2018-01-13T09:03:33.700Z,93.80
2018-01-13T09:06:02.004Z,93.70
2018-01-13T09:08:30.339Z,93.70
2018-01-13T09:10:59.436Z,94.00
2018-01-13T09:13:28.528Z,93.70
2018-01-13T09:15:56.828Z,93.70
2018-01-13T09:18:25.916Z,93.90
2018-01-13T09:20:54.226Z,93.80
2018-01-13T09:23:22.546Z,93.80
2018-01-13T09:25:50.868Z,93.80
2018-01-13T09:28:19.935Z,93.80
2018-01-13T09:30:48.244Z,93.80
2018-01-13T09:33:17.335Z,93.70
2018-01-13T09:35:45.650Z,93.70
2018-01-13T09:38:13.968Z,93.80
2018-01-13T09:40:42.258Z,93.70
2018-01-13T09:43:10.560Z,93.70
2018-01-13T09:45:38.869Z,93.70
2018-01-13T09:48:07.170Z,93.60
2018-01-13T09:50:35.492Z,93.60
2018-01-13T09:53:03.800Z,93.60
2018-01-13T09:55:33.501Z,93.60
2018-01-13T09:58:01.820Z,93.60
2018-01-13T10:00:30.136Z,94.00
2018-01-13T10:02:58.446Z,93.60
2018-01-13T10:05:26.758Z,93.60
2018-01-13T10:07:55.844Z,93.50
2018-01-13T10:10:24.934Z,93.40
2018-01-13T10:12:54.036Z,93.30
2018-01-13T10:15:23.119Z,93.20
2018-01-13T10:17:51.444Z,93.20
2018-01-13T10:20:19.746Z,93.20
2018-01-13T10:22:48.048Z,93.20
2018-01-13T10:25:16.348Z,93.10
2018-01-13T10:27:44.704Z,93.10
2018-01-13T10:30:13.055Z,93.10
2018-01-13T10:32:41.344Z,93.10
2018-01-13T10:35:09.717Z,93.00
2018-01-13T10:37:38.853Z,93.00
2018-01-13T10:40:07.143Z,93.00
2018-01-13T10:42:35.464Z,93.00
2018-01-13T10:45:04.537Z,93.10
2018-01-13T10:47:33.793Z,93.10
2018-01-13T10:50:02.097Z,93.10
2018-01-13T10:52:30.452Z,93.20
2018-01-13T10:54:58.755Z,93.20
2018-01-13T10:57:27.074Z,93.20
2018-01-13T10:59:55.418Z,93.20
2018-01-13T11:02:23.844Z,93.20
2018-01-13T11:04:52.180Z,93.20
2018-01-13T11:07:20.514Z,93.20
2018-01-13T11:09:48.906Z,93.20
2018-01-13T11:12:17.972Z,93.10
2018-01-13T11:14:46.274Z,93.10
2018-01-13T11:17:15.364Z,93.50
2018-01-13T11:19:43.668Z,93.10
2018-01-13T11:22:12.771Z,93.10
2018-01-13T11:24:41.088Z,93.00
2018-01-13T11:27:09.451Z,93.00
2018-01-13T11:29:37.728Z,93.10
2018-01-13T11:32:06.036Z,93.10
2018-01-13T11:34:34.368Z,93.10
2018-01-13T11:37:03.449Z,93.00
2018-01-13T11:39:31.744Z,93.00
2018-01-13T11:42:00.945Z,93.10
2018-01-13T11:44:30.032Z,93.20
2018-01-13T11:46:58.365Z,93.10
2018-01-13T11:49:26.678Z,93.20
2018-01-13T11:51:55.014Z,93.30
2018-01-13T11:54:23.338Z,93.30
2018-01-13T11:56:51.659Z,93.40
2018-01-13T11:59:20.824Z,93.30
2018-01-13T12:01:49.136Z,93.30
2018-01-13T12:04:17.450Z,93.20
2018-01-13T12:06:45.849Z,93.40
2018-01-13T12:09:14.160Z,93.40
2018-01-13T12:11:42.563Z,93.50
2018-01-13T12:14:10.907Z,93.40
2018-01-13T12:16:39.221Z,93.40
2018-01-13T12:19:07.545Z,93.40
2018-01-13T12:21:35.865Z,93.30
2018-01-13T12:24:04.184Z,93.30
2018-01-13T12:26:33.260Z,93.30
2018-01-13T12:29:01.579Z,93.20
2018-01-13T12:31:29.893Z,93.20
2018-01-13T12:33:58.209Z,93.30
2018-01-13T12:36:26.526Z,93.10
2018-01-13T12:38:54.878Z,93.00
2018-01-13T12:41:23.178Z,93.00
2018-01-13T12:43:52.277Z,93.10
2018-01-13T12:46:20.599Z,93.10
2018-01-13T12:48:48.927Z,93.10
2018-01-13T12:51:18.111Z,93.10
2018-01-13T12:53:46.541Z,93.00
2018-01-13T12:56:15.074Z,92.90
2018-01-13T12:58:43.415Z,92.70
2018-01-13T13:01:11.970Z,92.50
2018-01-13T13:03:41.063Z,92.60
2018-01-13T13:06:10.247Z,92.30
2018-01-13T13:08:38.562Z,92.20
2018-01-13T13:11:07.650Z,92.20
2018-01-13T13:13:36.749Z,92.10
2018-01-13T13:16:05.841Z,92.00
2018-01-13T13:18:34.159Z,92.00
2018-01-13T13:21:02.477Z,92.00
2018-01-13T13:23:30.772Z,92.00
2018-01-13T13:25:59.162Z,92.00
2018-01-13T13:28:27.476Z,92.20
2018-01-13T13:30:56.568Z,92.20
2018-01-13T13:33:25.670Z,92.10
2018-01-13T13:35:54.765Z,91.90
2018-01-13T13:38:23.851Z,91.80
2018-01-13T13:40:52.976Z,91.70
2018-01-13T13:43:21.295Z,91.70
2018-01-13T13:45:49.594Z,91.70
2018-01-13T13:48:17.935Z,91.60
2018-01-13T13:50:46.245Z,91.60
2018-01-13T13:53:14.563Z,91.60
2018-01-13T13:55:42.887Z,91.50
2018-01-13T13:58:11.200Z,91.60
2018-01-13T14:00:39.521Z,91.60
2018-01-13T14:03:08.653Z,91.70
2018-01-13T14:05:36.973Z,91.60
2018-01-13T14:08:05.282Z,91.60
2018-01-13T14:10:34.353Z,91.40
2018-01-13T14:13:02.680Z,91.40
2018-01-13T14:15:31.017Z,91.40
2018-01-13T14:17:59.353Z,91.50
2018-01-13T14:20:27.726Z,91.40
2018-01-13T14:22:56.069Z,91.50
2018-01-13T14:25:24.418Z,91.60
2018-01-13T14:27:53.051Z,91.60
2018-01-13T14:30:21.370Z,91.60
2018-01-13T14:32:49.673Z,91.50
2018-01-13T14:35:18.051Z,91.50
2018-01-13T14:37:46.415Z,91.60
2018-01-13T14:40:14.719Z,91.70
2018-01-13T14:42:43.129Z,92.00
2018-01-13T14:45:11.483Z,92.20
2018-01-13T14:47:39.799Z,92.50
2018-01-13T14:50:08.095Z,92.80
2018-01-13T14:52:36.437Z,93.00
2018-01-13T14:55:05.229Z,92.90
2018-01-13T14:57:33.545Z,92.90
2018-01-13T15:00:01.865Z,93.00
2018-01-13T15:02:30.194Z,92.70
2018-01-13T15:04:58.531Z,92.90
2018-01-13T15:07:26.891Z,92.90
2018-01-13T15:09:55.969Z,92.30
2018-01-13T15:12:24.309Z,92.30
2018-01-13T15:14:52.637Z,92.20
2018-01-13T15:17:20.949Z,92.20
2018-01-13T15:19:49.267Z,92.40
2018-01-13T15:22:17.583Z,92.40
2018-01-13T15:24:45.898Z,92.10
2018-01-13T15:27:14.201Z,92.00
2018-01-13T15:29:42.521Z,91.90
2018-01-13T15:32:10.847Z,91.90
2018-01-13T15:34:39.153Z,92.10
2018-01-13T15:37:07.469Z,92.00
2018-01-13T15:39:35.764Z,92.00
2018-01-13T15:42:04.971Z,91.70
2018-01-13T15:44:34.043Z,91.60
2018-01-13T15:47:02.359Z,91.60
2018-01-13T15:49:30.675Z,91.50
2018-01-13T15:51:59.013Z,91.50
2018-01-13T15:54:28.070Z,91.70
2018-01-13T15:56:56.389Z,91.70
2018-01-13T15:59:25.513Z,91.60
2018-01-13T16:01:54.559Z,91.50
2018-01-13T16:04:22.946Z,91.50
2018-01-13T16:06:51.256Z,91.60
2018-01-13T16:09:19.575Z,91.60
2018-01-13T16:11:47.902Z,91.70
2018-01-13T16:14:16.223Z,92.00
2018-01-13T16:16:44.535Z,91.60
2018-01-13T16:19:12.871Z,91.50
2018-01-13T16:21:41.932Z,91.50
2018-01-13T16:24:10.240Z,91.50
2018-01-13T16:26:39.325Z,91.10
2018-01-13T16:29:07.644Z,91.00
2018-01-13T16:31:35.950Z,90.70
2018-01-13T16:34:04.287Z,90.40
2018-01-13T16:36:33.393Z,90.20
2018-01-13T16:39:02.525Z,89.20
2018-01-13T16:41:30.843Z,89.20
2018-01-13T16:43:59.146Z,88.60
2018-01-13T16:46:27.459Z,87.90
2018-01-13T16:48:55.847Z,87.30
2018-01-13T16:51:24.179Z,87.10
2018-01-13T16:53:52.476Z,87.10
2018-01-13T16:56:21.564Z,87.00
2018-01-13T16:58:49.879Z,86.90
2018-01-13T17:01:18.984Z,86.20
2018-01-13T17:03:47.269Z,86.20
2018-01-13T17:06:15.605Z,86.50
2018-01-13T17:08:43.930Z,86.00
2018-01-13T17:11:12.287Z,86.20
2018-01-13T17:13:41.347Z,85.30
2018-01-13T17:16:09.655Z,85.30
2018-01-13T17:18:37.968Z,85.00
2018-01-13T17:21:06.277Z,85.60
2018-01-13T17:23:34.621Z,84.50
2018-01-13T17:28:38.339Z,84.10
2018-01-13T17:31:06.653Z,84.00
2018-01-13T17:33:34.949Z,83.90
2018-01-13T17:36:03.266Z,83.70
2018-01-13T17:38:31.563Z,83.80
2018-01-13T17:41:01.591Z,84.80
2018-01-13T17:43:30.667Z,84.20
2018-01-13T17:45:59.824Z,84.10
2018-01-13T17:48:28.130Z,84.10
2018-01-13T17:50:56.455Z,84.00
2018-01-13T17:53:24.778Z,84.10
2018-01-13T17:55:53.103Z,84.50
2018-01-13T17:58:22.180Z,85.30
2018-01-13T18:00:50.491Z,84.60
2018-01-13T18:03:19.580Z,85.20
2018-01-13T18:05:47.930Z,85.10
2018-01-13T18:08:16.279Z,85.20
2018-01-13T18:10:44.632Z,85.40
2018-01-13T18:13:12.970Z,85.50
2018-01-13T18:15:41.279Z,85.20
2018-01-13T18:18:09.594Z,85.10
2018-01-13T18:20:38.664Z,84.40
2018-01-13T18:23:06.989Z,84.40
2018-01-13T18:25:35.296Z,84.00
2018-01-13T18:28:03.598Z,83.70
2018-01-13T18:30:31.907Z,83.40
2018-01-13T18:33:01.010Z,82.90
2018-01-13T18:35:30.093Z,82.80
2018-01-13T18:37:58.397Z,82.70
2018-01-13T18:40:26.930Z,82.80
2018-01-13T18:42:55.237Z,83.50
2018-01-13T18:45:23.525Z,83.50
2018-01-13T18:47:51.846Z,83.40
2018-01-13T18:50:20.148Z,83.20
2018-01-13T18:52:48.453Z,83.00
2018-01-13T18:55:16.762Z,83.00
2018-01-13T18:57:45.880Z,83.70
2018-01-13T19:00:14.188Z,83.70
2018-01-13T19:02:42.521Z,83.70
2018-01-13T19:05:10.882Z,83.50
2018-01-13T19:07:39.214Z,83.30
2018-01-13T19:10:07.534Z,83.10
2018-01-13T19:12:35.826Z,83.00
2018-01-13T19:15:04.162Z,82.80
2018-01-13T19:17:32.542Z,82.80
2018-01-13T19:20:00.856Z,82.70
2018-01-13T19:22:29.297Z,82.70
2018-01-13T19:24:57.620Z,82.70
2018-01-13T19:27:25.933Z,82.80
2018-01-13T19:29:54.263Z,82.60
2018-01-13T19:32:22.640Z,82.70
2018-01-13T19:34:50.942Z,82.70
2018-01-13T19:37:19.242Z,82.90
2018-01-13T19:39:48.364Z,83.70
2018-01-13T19:42:16.680Z,84.20
2018-01-13T19:44:45.077Z,83.80
2018-01-13T19:47:13.392Z,83.90
2018-01-13T19:49:41.712Z,83.90
2018-01-13T19:52:10.018Z,83.90
2018-01-13T19:54:38.330Z,83.90
2018-01-13T19:57:06.673Z,84.20
2018-01-13T19:59:35.850Z,84.30
2018-01-13T20:02:05.180Z,84.50
2018-01-13T20:04:33.487Z,84.40
2018-01-13T20:07:01.809Z,84.50
2018-01-13T20:09:30.903Z,84.60
2018-01-13T20:11:59.241Z,84.60
2018-01-13T20:14:27.564Z,84.50
2018-01-13T20:16:55.886Z,84.60
2018-01-13T20:19:25.102Z,84.70
2018-01-13T20:21:53.398Z,85.10
2018-01-13T20:24:21.719Z,85.00
2018-01-13T20:26:50.132Z,85.20
2018-01-13T20:29:18.437Z,85.10
2018-01-13T20:31:46.868Z,85.20
2018-01-13T20:34:15.179Z,85.50
2018-01-13T20:36:43.491Z,86.50
2018-01-13T20:39:11.817Z,85.50
2018-01-13T20:41:42.051Z,85.50
2018-01-13T20:44:11.131Z,85.30
2018-01-13T20:46:39.637Z,85.30
2018-01-13T20:49:09.348Z,85.00
2018-01-13T20:51:38.601Z,84.80
2018-01-13T20:54:07.115Z,84.70
2018-01-13T20:56:36.258Z,85.70
2018-01-13T20:59:05.357Z,84.90
2018-01-13T21:01:33.735Z,84.90
2018-01-13T21:04:06.358Z,85.40
2018-01-13T21:06:34.804Z,85.40
2018-01-13T21:09:03.127Z,85.10
2018-01-13T21:11:31.674Z,85.00
2018-01-13T21:14:00.072Z,85.40
2018-01-13T21:16:28.503Z,85.10
2018-01-13T21:18:56.802Z,84.80
2018-01-13T21:21:25.875Z,84.50
2018-01-13T21:23:54.239Z,84.40
2018-01-13T21:26:22.534Z,84.50
2018-01-13T21:28:50.839Z,84.50
2018-01-13T21:31:19.981Z,84.30
2018-01-13T21:33:48.298Z,84.30
2018-01-13T21:36:16.631Z,84.90
2018-01-13T21:38:45.740Z,84.10
2018-01-13T21:41:14.074Z,83.80
2018-01-13T21:43:42.566Z,83.70
2018-01-13T21:46:11.658Z,85.20
2018-01-13T21:48:39.983Z,84.30
2018-01-13T21:51:08.321Z,84.10
2018-01-13T21:53:36.624Z,83.90
2018-01-13T21:56:05.755Z,83.60
2018-01-13T21:58:34.049Z,83.50
2018-01-13T22:01:02.530Z,83.50
2018-01-13T22:03:30.834Z,83.60
2018-01-13T22:05:59.940Z,83.50
2018-01-13T22:08:28.248Z,83.60
2018-01-13T22:10:57.361Z,84.50
2018-01-13T22:13:26.472Z,84.80
2018-01-13T22:15:54.778Z,84.70
2018-01-13T22:18:23.108Z,84.60
2018-01-13T22:20:52.221Z,85.40
2018-01-13T22:23:21.319Z,84.80
2018-01-13T22:25:51.266Z,84.90
2018-01-13T22:28:19.573Z,84.90
2018-01-13T22:30:48.002Z,84.90
2018-01-13T22:33:17.116Z,84.90
2018-01-13T22:35:45.418Z,84.90
2018-01-13T22:38:13.733Z,85.00
2018-01-13T22:40:42.034Z,84.90
2018-01-13T22:43:10.389Z,85.10
2018-01-13T22:45:38.699Z,85.00
2018-01-13T22:48:07.018Z,85.60
2018-01-13T22:50:35.373Z,86.60
2018-01-13T22:53:03.706Z,85.70
2018-01-13T22:55:32.004Z,85.40
2018-01-13T22:58:00.316Z,85.40
2018-01-13T23:03:28.981Z,85.10
2018-01-13T23:05:57.306Z,85.20
2018-01-13T23:08:25.610Z,85.00
2018-01-13T23:10:53.924Z,84.90
2018-01-13T23:13:22.234Z,84.90
2018-01-13T23:15:51.289Z,86.20
2018-01-13T23:18:19.601Z,86.20
2018-01-13T23:20:48.698Z,86.00
2018-01-13T23:23:16.996Z,86.50
2018-01-13T23:25:45.314Z,86.70
2018-01-13T23:28:13.663Z,86.70
2018-01-13T23:30:42.716Z,87.20
2018-01-13T23:33:11.131Z,87.10
2018-01-13T23:35:39.505Z,87.10
2018-01-13T23:38:07.872Z,87.80
2018-01-13T23:40:36.212Z,87.10
2018-01-13T23:43:04.494Z,87.50
2018-01-13T23:45:32.800Z,87.60
2018-01-13T23:48:01.099Z,87.50
2018-01-13T23:50:29.409Z,87.60
2018-01-13T23:52:57.759Z,87.70
2018-01-13T23:55:26.085Z,88.00
2018-01-13T23:57:55.164Z,87.90
